AUA239 LTFM-LOWI
Flight info
| Callsign | AUA239 |
|---|---|
| Flight time | 2h 13m |
| Altitude | 34000 |
| Route | VADEN1D/35L VADEN N618 BAKLO DCT XANEX DCT UTEKA DCT TUVAR DCT BEDOX DCT NANIT |
| Aircraft | A321/M-SDE3FGHIRWY/LB1 |
Departure
| Time | 2026-05-07 12:13 |
|---|---|
| Airport | İstanbul Airport (LTFM) |
Arrival
| Time | 2026-05-07 14:26 |
|---|---|
| Airport | Innsbruck Airport (LOWI) |
| Time | Latitude | Longitude | Altitude | Speed | Heading |
|---|---|---|---|---|---|
| 2026-05-07 11:47 | 41.26723 | 28.74126 | 177 ft | 0 kts | 90° |
| 2026-05-07 11:58 | 41.26723 | 28.74112 | 177 ft | 4 kts | 82° |
| 2026-05-07 11:59 | 41.26715 | 28.74080 | 177 ft | 4 kts | 60° |
| 2026-05-07 11:59 | 41.26709 | 28.74067 | 177 ft | 0 kts | 61° |
| 2026-05-07 12:02 | 41.26710 | 28.74068 | 177 ft | 1 kts | 61° |
| 2026-05-07 12:02 | 41.26719 | 28.74066 | 177 ft | 3 kts | 344° |
| 2026-05-07 12:03 | 41.26762 | 28.74045 | 177 ft | 10 kts | 338° |
| 2026-05-07 12:03 | 41.26830 | 28.74017 | 177 ft | 8 kts | 2° |
| 2026-05-07 12:03 | 41.26882 | 28.74018 | 177 ft | 7 kts | 359° |
| 2026-05-07 12:03 | 41.26928 | 28.74017 | 177 ft | 6 kts | 358° |
| 2026-05-07 12:04 | 41.26966 | 28.74015 | 177 ft | 5 kts | 358° |
| 2026-05-07 12:04 | 41.26997 | 28.74014 | 177 ft | 4 kts | 358° |
| 2026-05-07 12:04 | 41.27019 | 28.74004 | 177 ft | 3 kts | 330° |
| 2026-05-07 12:04 | 41.27035 | 28.73972 | 177 ft | 5 kts | 291° |
| 2026-05-07 12:05 | 41.27039 | 28.73916 | 177 ft | 7 kts | 270° |
| 2026-05-07 12:05 | 41.27039 | 28.73841 | 177 ft | 9 kts | 271° |
| 2026-05-07 12:05 | 41.27039 | 28.73751 | 177 ft | 11 kts | 268° |
| 2026-05-07 12:05 | 41.27037 | 28.73647 | 177 ft | 12 kts | 268° |
| 2026-05-07 12:06 | 41.27036 | 28.73538 | 177 ft | 11 kts | 270° |
| 2026-05-07 12:06 | 41.27035 | 28.73444 | 176 ft | 9 kts | 269° |
| 2026-05-07 12:06 | 41.27034 | 28.73366 | 176 ft | 8 kts | 269° |
| 2026-05-07 12:06 | 41.27033 | 28.73302 | 176 ft | 6 kts | 269° |
| 2026-05-07 12:07 | 41.27033 | 28.73251 | 176 ft | 5 kts | 269° |
| 2026-05-07 12:07 | 41.27033 | 28.73206 | 176 ft | 5 kts | 269° |
| 2026-05-07 12:07 | 41.27032 | 28.73144 | 176 ft | 10 kts | 269° |
| 2026-05-07 12:07 | 41.27031 | 28.73055 | 176 ft | 8 kts | 268° |
| 2026-05-07 12:08 | 41.27012 | 28.72998 | 176 ft | 6 kts | 224° |
| 2026-05-07 12:08 | 41.26978 | 28.72986 | 176 ft | 4 kts | 179° |
| 2026-05-07 12:08 | 41.26945 | 28.72987 | 176 ft | 6 kts | 180° |
| 2026-05-07 12:08 | 41.26890 | 28.72987 | 176 ft | 10 kts | 180° |
| 2026-05-07 12:09 | 41.26827 | 28.72990 | 176 ft | 8 kts | 178° |
| 2026-05-07 12:09 | 41.26774 | 28.72991 | 176 ft | 7 kts | 179° |
| 2026-05-07 12:09 | 41.26730 | 28.72986 | 176 ft | 5 kts | 204° |
| 2026-05-07 12:09 | 41.26709 | 28.72954 | 176 ft | 4 kts | 247° |
| 2026-05-07 12:10 | 41.26707 | 28.72925 | 176 ft | 3 kts | 268° |
| 2026-05-07 12:10 | 41.26706 | 28.72877 | 176 ft | 8 kts | 268° |
| 2026-05-07 12:10 | 41.26705 | 28.72806 | 177 ft | 5 kts | 268° |
| 2026-05-07 12:10 | 41.26704 | 28.72765 | 178 ft | 5 kts | 269° |
| 2026-05-07 12:11 | 41.26704 | 28.72697 | 179 ft | 9 kts | 270° |
| 2026-05-07 12:11 | 41.26703 | 28.72600 | 179 ft | 8 kts | 270° |
| 2026-05-07 12:11 | 41.26715 | 28.72534 | 178 ft | 7 kts | 307° |
| 2026-05-07 12:11 | 41.26740 | 28.72517 | 178 ft | 0 kts | 359° |
| 2026-05-07 12:12 | 41.26742 | 28.72517 | 178 ft | 4 kts | 359° |
| 2026-05-07 12:12 | 41.27068 | 28.72512 | 175 ft | 90 kts | 0° |
| 2026-05-07 12:12 | 41.27947 | 28.72498 | 179 ft | 159 kts | 360° |
| 2026-05-07 12:12 | 41.29209 | 28.72550 | 415 ft | 191 kts | 6° |
| 2026-05-07 12:13 | 41.30497 | 28.72677 | 1406 ft | 183 kts | 3° |
| 2026-05-07 12:13 | 41.31767 | 28.72749 | 2155 ft | 183 kts | 359° |
| 2026-05-07 12:13 | 41.33101 | 28.72713 | 2416 ft | 202 kts | 357° |
| 2026-05-07 12:13 | 41.34567 | 28.72658 | 2548 ft | 220 kts | 357° |
| 2026-05-07 12:14 | 41.36171 | 28.72612 | 2654 ft | 242 kts | 358° |
| 2026-05-07 12:14 | 41.37860 | 28.72206 | 2907 ft | 258 kts | 329° |
| 2026-05-07 12:14 | 41.39142 | 28.70582 | 3524 ft | 257 kts | 301° |
| 2026-05-07 12:14 | 41.40069 | 28.68546 | 4260 ft | 257 kts | 300° |
| 2026-05-07 12:15 | 41.40988 | 28.66490 | 4832 ft | 261 kts | 300° |
| 2026-05-07 12:15 | 41.41918 | 28.64410 | 4988 ft | 260 kts | 300° |
| 2026-05-07 12:15 | 41.42845 | 28.62341 | 5379 ft | 261 kts | 300° |
| 2026-05-07 12:15 | 41.43780 | 28.60257 | 6116 ft | 262 kts | 300° |
| 2026-05-07 12:16 | 41.44722 | 28.58164 | 6799 ft | 264 kts | 300° |
| 2026-05-07 12:16 | 41.45673 | 28.56054 | 7424 ft | 267 kts | 301° |
| 2026-05-07 12:16 | 41.46619 | 28.53949 | 8037 ft | 270 kts | 301° |
| 2026-05-07 12:16 | 41.47588 | 28.51789 | 8654 ft | 273 kts | 301° |
| 2026-05-07 12:17 | 41.48569 | 28.49609 | 9290 ft | 275 kts | 301° |
| 2026-05-07 12:17 | 41.49560 | 28.47407 | 9907 ft | 278 kts | 301° |
| 2026-05-07 12:17 | 41.50572 | 28.45161 | 10256 ft | 291 kts | 301° |
| 2026-05-07 12:17 | 41.51646 | 28.42775 | 10380 ft | 310 kts | 301° |
| 2026-05-07 12:18 | 41.52785 | 28.40237 | 10511 ft | 327 kts | 301° |
| 2026-05-07 12:18 | 41.53974 | 28.37587 | 10849 ft | 336 kts | 301° |
| 2026-05-07 12:18 | 41.55179 | 28.34892 | 11357 ft | 340 kts | 301° |
| 2026-05-07 12:18 | 41.56380 | 28.32204 | 11881 ft | 343 kts | 301° |
| 2026-05-07 12:19 | 41.57606 | 28.29455 | 12423 ft | 346 kts | 301° |
| 2026-05-07 12:19 | 41.58792 | 28.26640 | 12950 ft | 349 kts | 298° |
| 2026-05-07 12:19 | 41.59914 | 28.23743 | 13463 ft | 353 kts | 297° |
| 2026-05-07 12:19 | 41.61008 | 28.20790 | 13988 ft | 356 kts | 296° |
| 2026-05-07 12:20 | 41.62098 | 28.17805 | 14443 ft | 359 kts | 296° |
| 2026-05-07 12:20 | 41.63197 | 28.14805 | 14931 ft | 361 kts | 296° |
| 2026-05-07 12:20 | 41.64312 | 28.11789 | 15411 ft | 363 kts | 297° |
| 2026-05-07 12:20 | 41.65442 | 28.08760 | 15872 ft | 365 kts | 297° |
| 2026-05-07 12:21 | 41.66585 | 28.05716 | 16324 ft | 367 kts | 297° |
| 2026-05-07 12:21 | 41.67760 | 28.02724 | 16762 ft | 369 kts | 302° |
| 2026-05-07 12:21 | 41.69156 | 27.99832 | 17207 ft | 371 kts | 303° |
| 2026-05-07 12:21 | 41.70566 | 27.96931 | 17656 ft | 373 kts | 303° |
| 2026-05-07 12:22 | 41.71982 | 27.94012 | 18093 ft | 375 kts | 303° |
| 2026-05-07 12:22 | 41.73403 | 27.91074 | 18498 ft | 377 kts | 303° |
| 2026-05-07 12:22 | 41.74827 | 27.88129 | 18866 ft | 378 kts | 303° |
| 2026-05-07 12:22 | 41.76258 | 27.85166 | 19224 ft | 379 kts | 303° |
| 2026-05-07 12:23 | 41.77206 | 27.83196 | 19468 ft | 380 kts | 303° |
| 2026-05-07 12:23 | 41.79121 | 27.79212 | 19938 ft | 381 kts | 303° |
| 2026-05-07 12:23 | 41.80538 | 27.76264 | 20279 ft | 382 kts | 303° |
| 2026-05-07 12:23 | 41.81977 | 27.73271 | 20636 ft | 382 kts | 303° |
| 2026-05-07 12:24 | 41.83420 | 27.70270 | 20988 ft | 383 kts | 303° |
| 2026-05-07 12:24 | 41.84866 | 27.67256 | 21311 ft | 385 kts | 303° |
| 2026-05-07 12:24 | 41.86315 | 27.64230 | 21651 ft | 386 kts | 303° |
| 2026-05-07 12:24 | 41.87273 | 27.62225 | 21869 ft | 387 kts | 303° |
| 2026-05-07 12:25 | 41.89218 | 27.58147 | 22317 ft | 388 kts | 303° |
| 2026-05-07 12:25 | 41.90181 | 27.56128 | 22561 ft | 389 kts | 303° |
| 2026-05-07 12:25 | 41.92114 | 27.52068 | 22986 ft | 391 kts | 303° |
| 2026-05-07 12:25 | 41.93581 | 27.48989 | 23336 ft | 392 kts | 303° |
| 2026-05-07 12:26 | 41.95054 | 27.45900 | 23667 ft | 393 kts | 303° |
| 2026-05-07 12:26 | 41.96033 | 27.43843 | 23843 ft | 395 kts | 303° |
| 2026-05-07 12:26 | 41.97513 | 27.40728 | 24114 ft | 396 kts | 303° |
| 2026-05-07 12:26 | 41.98997 | 27.37599 | 24413 ft | 398 kts | 303° |
| 2026-05-07 12:27 | 42.00480 | 27.34465 | 24696 ft | 399 kts | 303° |
| 2026-05-07 12:27 | 42.02459 | 27.30285 | 25075 ft | 400 kts | 303° |
| 2026-05-07 12:27 | 42.03956 | 27.27119 | 25337 ft | 402 kts | 303° |
| 2026-05-07 12:27 | 42.05456 | 27.23940 | 25610 ft | 403 kts | 303° |
| 2026-05-07 12:28 | 42.06483 | 27.21862 | 25769 ft | 404 kts | 307° |
| 2026-05-07 12:28 | 42.08305 | 27.18980 | 26000 ft | 406 kts | 311° |
| 2026-05-07 12:28 | 42.10202 | 27.16155 | 26243 ft | 407 kts | 311° |
| 2026-05-07 12:28 | 42.12102 | 27.13313 | 26493 ft | 409 kts | 311° |
| 2026-05-07 12:29 | 42.14002 | 27.10452 | 26744 ft | 410 kts | 311° |
| 2026-05-07 12:29 | 42.15907 | 27.07578 | 26997 ft | 412 kts | 311° |
| 2026-05-07 12:29 | 42.17817 | 27.04695 | 27245 ft | 413 kts | 311° |
| 2026-05-07 12:29 | 42.19735 | 27.01804 | 27502 ft | 414 kts | 311° |
| 2026-05-07 12:30 | 42.21656 | 26.98910 | 27748 ft | 416 kts | 311° |
| 2026-05-07 12:30 | 42.23562 | 26.96035 | 27958 ft | 418 kts | 311° |
| 2026-05-07 12:30 | 42.25500 | 26.93104 | 28186 ft | 419 kts | 311° |
| 2026-05-07 12:30 | 42.27446 | 26.90160 | 28418 ft | 421 kts | 311° |
| 2026-05-07 12:31 | 42.29396 | 26.87204 | 28650 ft | 422 kts | 311° |
| 2026-05-07 12:31 | 42.31351 | 26.84237 | 28864 ft | 423 kts | 311° |
| 2026-05-07 12:31 | 42.33313 | 26.81263 | 29106 ft | 424 kts | 311° |
| 2026-05-07 12:31 | 42.35275 | 26.78283 | 29323 ft | 425 kts | 311° |
| 2026-05-07 12:32 | 42.37240 | 26.75294 | 29526 ft | 426 kts | 310° |
| 2026-05-07 12:32 | 42.39210 | 26.72294 | 29688 ft | 427 kts | 310° |
| 2026-05-07 12:32 | 42.41184 | 26.69285 | 29826 ft | 429 kts | 310° |
| 2026-05-07 12:32 | 42.43142 | 26.66297 | 29993 ft | 430 kts | 310° |
| 2026-05-07 12:33 | 42.47111 | 26.60222 | 30377 ft | 430 kts | 310° |
| 2026-05-07 12:33 | 42.49091 | 26.57188 | 30569 ft | 429 kts | 310° |
| 2026-05-07 12:33 | 42.51065 | 26.54156 | 30777 ft | 429 kts | 310° |
| 2026-05-07 12:34 | 42.53033 | 26.51125 | 30979 ft | 428 kts | 309° |
| 2026-05-07 12:34 | 42.54785 | 26.47879 | 31150 ft | 426 kts | 300° |
| 2026-05-07 12:34 | 42.56190 | 26.44404 | 31327 ft | 426 kts | 297° |
| 2026-05-07 12:34 | 42.57598 | 26.40823 | 31535 ft | 425 kts | 297° |
| 2026-05-07 12:35 | 42.58976 | 26.37335 | 31728 ft | 425 kts | 297° |
| 2026-05-07 12:35 | 42.60372 | 26.33809 | 31933 ft | 424 kts | 297° |
| 2026-05-07 12:35 | 42.61766 | 26.30288 | 32150 ft | 423 kts | 297° |
| 2026-05-07 12:35 | 42.63155 | 26.26772 | 32372 ft | 422 kts | 297° |
| 2026-05-07 12:36 | 42.64540 | 26.23261 | 32568 ft | 421 kts | 297° |
| 2026-05-07 12:36 | 42.65921 | 26.19756 | 32793 ft | 420 kts | 297° |
| 2026-05-07 12:36 | 42.67294 | 26.16260 | 33022 ft | 419 kts | 297° |
| 2026-05-07 12:36 | 42.68644 | 26.12816 | 33253 ft | 418 kts | 297° |
| 2026-05-07 12:37 | 42.70007 | 26.09333 | 33488 ft | 417 kts | 297° |
| 2026-05-07 12:37 | 42.71365 | 26.05861 | 33701 ft | 416 kts | 297° |
| 2026-05-07 12:37 | 42.72721 | 26.02393 | 33904 ft | 415 kts | 297° |
| 2026-05-07 12:37 | 42.74073 | 25.98932 | 34036 ft | 413 kts | 297° |
| 2026-05-07 12:38 | 42.76741 | 25.92079 | 34059 ft | 407 kts | 296° |
| 2026-05-07 12:38 | 42.79379 | 25.85278 | 34055 ft | 406 kts | 296° |
| 2026-05-07 12:39 | 42.81997 | 25.78510 | 34054 ft | 406 kts | 296° |
| 2026-05-07 12:39 | 42.84628 | 25.71712 | 34049 ft | 406 kts | 296° |
| 2026-05-07 12:40 | 42.87257 | 25.64899 | 34046 ft | 406 kts | 295° |
| 2026-05-07 12:40 | 42.89888 | 25.58072 | 34038 ft | 406 kts | 295° |
| 2026-05-07 12:41 | 42.92509 | 25.51246 | 34034 ft | 406 kts | 295° |
| 2026-05-07 12:41 | 42.95107 | 25.44453 | 34032 ft | 406 kts | 295° |
| 2026-05-07 12:42 | 42.97719 | 25.37614 | 34030 ft | 406 kts | 295° |
| 2026-05-07 12:42 | 43.00330 | 25.30779 | 34035 ft | 406 kts | 295° |
| 2026-05-07 12:43 | 43.02931 | 25.23938 | 34036 ft | 406 kts | 295° |
| 2026-05-07 12:43 | 43.05512 | 25.17136 | 34036 ft | 406 kts | 295° |
| 2026-05-07 12:44 | 43.08107 | 25.10277 | 34031 ft | 406 kts | 295° |
| 2026-05-07 12:44 | 43.10700 | 25.03403 | 34024 ft | 407 kts | 294° |
| 2026-05-07 12:45 | 43.13266 | 24.96495 | 34023 ft | 407 kts | 293° |
| 2026-05-07 12:45 | 43.15562 | 24.89485 | 34023 ft | 406 kts | 290° |
| 2026-05-07 12:46 | 43.17752 | 24.82346 | 34033 ft | 406 kts | 290° |
| 2026-05-07 12:46 | 43.19958 | 24.75213 | 34032 ft | 407 kts | 291° |
| 2026-05-07 12:47 | 43.22202 | 24.68091 | 34025 ft | 407 kts | 291° |
| 2026-05-07 12:47 | 43.24443 | 24.61012 | 34033 ft | 408 kts | 291° |
| 2026-05-07 12:48 | 43.26694 | 24.53864 | 34022 ft | 409 kts | 291° |
| 2026-05-07 12:48 | 43.28929 | 24.46693 | 34035 ft | 410 kts | 290° |
| 2026-05-07 12:49 | 43.31171 | 24.39480 | 34016 ft | 412 kts | 291° |
| 2026-05-07 12:49 | 43.33435 | 24.32239 | 34032 ft | 413 kts | 291° |
| 2026-05-07 12:50 | 43.35675 | 24.25019 | 34028 ft | 414 kts | 290° |
| 2026-05-07 12:50 | 43.37925 | 24.17734 | 34030 ft | 414 kts | 290° |
| 2026-05-07 12:51 | 43.40174 | 24.10438 | 34041 ft | 415 kts | 290° |
| 2026-05-07 12:51 | 43.42420 | 24.03134 | 34033 ft | 415 kts | 290° |
| 2026-05-07 12:52 | 43.44660 | 23.95864 | 34033 ft | 416 kts | 290° |
| 2026-05-07 12:52 | 43.46905 | 23.88534 | 34042 ft | 416 kts | 290° |
| 2026-05-07 12:53 | 43.49148 | 23.81182 | 34046 ft | 417 kts | 290° |
| 2026-05-07 12:53 | 43.51385 | 23.73818 | 34039 ft | 417 kts | 289° |
| 2026-05-07 12:54 | 43.53607 | 23.66486 | 34045 ft | 418 kts | 289° |
| 2026-05-07 12:54 | 43.55845 | 23.59104 | 34049 ft | 418 kts | 289° |
| 2026-05-07 12:55 | 43.58080 | 23.51703 | 34068 ft | 418 kts | 289° |
| 2026-05-07 12:55 | 43.60308 | 23.44294 | 34073 ft | 418 kts | 289° |
| 2026-05-07 12:56 | 43.62534 | 23.36876 | 34073 ft | 418 kts | 289° |
| 2026-05-07 12:56 | 43.64732 | 23.29507 | 34065 ft | 418 kts | 289° |
| 2026-05-07 12:57 | 43.66941 | 23.22077 | 34081 ft | 418 kts | 288° |
| 2026-05-07 12:57 | 43.69157 | 23.14639 | 34072 ft | 419 kts | 288° |
| 2026-05-07 12:58 | 43.71372 | 23.07179 | 34068 ft | 420 kts | 288° |
| 2026-05-07 12:58 | 43.73571 | 22.99754 | 34065 ft | 420 kts | 288° |
| 2026-05-07 12:59 | 43.75777 | 22.92277 | 34076 ft | 420 kts | 288° |
| 2026-05-07 12:59 | 43.77979 | 22.84771 | 34065 ft | 421 kts | 288° |
| 2026-05-07 13:00 | 43.80182 | 22.77242 | 34063 ft | 422 kts | 288° |
| 2026-05-07 13:00 | 43.82377 | 22.69748 | 34061 ft | 423 kts | 288° |
| 2026-05-07 13:01 | 43.84579 | 22.62198 | 34063 ft | 423 kts | 288° |
| 2026-05-07 13:01 | 43.86779 | 22.54616 | 34070 ft | 424 kts | 288° |
| 2026-05-07 13:02 | 43.88981 | 22.47033 | 34065 ft | 425 kts | 288° |
| 2026-05-07 13:02 | 43.91196 | 22.39438 | 34063 ft | 426 kts | 291° |
| 2026-05-07 13:03 | 43.93964 | 22.32181 | 34069 ft | 429 kts | 294° |
| 2026-05-07 13:03 | 43.96787 | 22.24892 | 34068 ft | 429 kts | 294° |
| 2026-05-07 13:04 | 43.99600 | 22.17600 | 34070 ft | 429 kts | 294° |
| 2026-05-07 13:04 | 44.02413 | 22.10292 | 34073 ft | 429 kts | 294° |
| 2026-05-07 13:05 | 44.05225 | 22.02981 | 34077 ft | 429 kts | 294° |
| 2026-05-07 13:05 | 44.08012 | 21.95713 | 34082 ft | 429 kts | 293° |
| 2026-05-07 13:06 | 44.10821 | 21.88364 | 34050 ft | 431 kts | 293° |
| 2026-05-07 13:06 | 44.13632 | 21.80991 | 34050 ft | 432 kts | 293° |
| 2026-05-07 13:07 | 44.16444 | 21.73582 | 34048 ft | 433 kts | 293° |
| 2026-05-07 13:07 | 44.19241 | 21.66211 | 34072 ft | 434 kts | 292° |
| 2026-05-07 13:08 | 44.22057 | 21.58757 | 34056 ft | 435 kts | 292° |
| 2026-05-07 13:08 | 44.24883 | 21.51282 | 34054 ft | 436 kts | 292° |
| 2026-05-07 13:09 | 44.27707 | 21.43799 | 34047 ft | 436 kts | 292° |
| 2026-05-07 13:09 | 44.30505 | 21.36338 | 34060 ft | 437 kts | 292° |
| 2026-05-07 13:10 | 44.33314 | 21.28818 | 34065 ft | 436 kts | 292° |
| 2026-05-07 13:10 | 44.36118 | 21.21302 | 34063 ft | 436 kts | 292° |
| 2026-05-07 13:11 | 44.38911 | 21.13790 | 34064 ft | 435 kts | 292° |
| 2026-05-07 13:11 | 44.41695 | 21.06279 | 34061 ft | 435 kts | 292° |
| 2026-05-07 13:12 | 44.44446 | 20.98839 | 34071 ft | 433 kts | 292° |
| 2026-05-07 13:12 | 44.47208 | 20.91377 | 34066 ft | 431 kts | 292° |
| 2026-05-07 13:13 | 44.49950 | 20.83935 | 34063 ft | 429 kts | 292° |
| 2026-05-07 13:13 | 44.52679 | 20.76506 | 34060 ft | 428 kts | 292° |
| 2026-05-07 13:14 | 44.55380 | 20.69129 | 34061 ft | 429 kts | 292° |
| 2026-05-07 13:14 | 44.58101 | 20.61681 | 34042 ft | 429 kts | 292° |
| 2026-05-07 13:15 | 44.60818 | 20.54219 | 34032 ft | 429 kts | 292° |
| 2026-05-07 13:15 | 44.63524 | 20.46754 | 34028 ft | 429 kts | 292° |
| 2026-05-07 13:16 | 44.66213 | 20.39317 | 34030 ft | 430 kts | 291° |
| 2026-05-07 13:16 | 44.68922 | 20.31809 | 34003 ft | 432 kts | 291° |
| 2026-05-07 13:17 | 44.71643 | 20.24274 | 34013 ft | 433 kts | 291° |
| 2026-05-07 13:17 | 44.74356 | 20.16713 | 34012 ft | 433 kts | 291° |
| 2026-05-07 13:18 | 44.77074 | 20.09148 | 34035 ft | 434 kts | 291° |
| 2026-05-07 13:18 | 44.79762 | 20.01613 | 34048 ft | 433 kts | 291° |
| 2026-05-07 13:19 | 44.82454 | 19.94053 | 34051 ft | 432 kts | 291° |
| 2026-05-07 13:19 | 44.85142 | 19.86491 | 34050 ft | 431 kts | 291° |
| 2026-05-07 13:20 | 44.87822 | 19.78923 | 34045 ft | 431 kts | 291° |
| 2026-05-07 13:20 | 44.90473 | 19.71424 | 34060 ft | 430 kts | 291° |
| 2026-05-07 13:21 | 44.93129 | 19.63883 | 34047 ft | 428 kts | 291° |
| 2026-05-07 13:21 | 44.95769 | 19.56357 | 34039 ft | 428 kts | 291° |
| 2026-05-07 13:22 | 44.98411 | 19.48816 | 34042 ft | 428 kts | 291° |
| 2026-05-07 13:22 | 45.01044 | 19.41291 | 34059 ft | 427 kts | 291° |
| 2026-05-07 13:23 | 45.03647 | 19.33818 | 34048 ft | 426 kts | 291° |
| 2026-05-07 13:23 | 45.06260 | 19.26309 | 34053 ft | 425 kts | 291° |
| 2026-05-07 13:24 | 45.08856 | 19.18814 | 34040 ft | 424 kts | 291° |
| 2026-05-07 13:24 | 45.11445 | 19.11308 | 34033 ft | 424 kts | 291° |
| 2026-05-07 13:25 | 45.14036 | 19.03869 | 34030 ft | 424 kts | 292° |
| 2026-05-07 13:25 | 45.16786 | 18.96467 | 34032 ft | 425 kts | 293° |
| 2026-05-07 13:26 | 45.19579 | 18.89081 | 34035 ft | 425 kts | 293° |
| 2026-05-07 13:26 | 45.22340 | 18.81674 | 34037 ft | 425 kts | 292° |
| 2026-05-07 13:27 | 45.25051 | 18.74298 | 34053 ft | 424 kts | 292° |
| 2026-05-07 13:27 | 45.27761 | 18.66879 | 34042 ft | 423 kts | 292° |
| 2026-05-07 13:28 | 45.30467 | 18.59468 | 34034 ft | 423 kts | 292° |
| 2026-05-07 13:28 | 45.33176 | 18.52061 | 34029 ft | 422 kts | 292° |
| 2026-05-07 13:29 | 45.35878 | 18.44651 | 34046 ft | 422 kts | 292° |
| 2026-05-07 13:29 | 45.38546 | 18.37290 | 34042 ft | 422 kts | 291° |
| 2026-05-07 13:30 | 45.41231 | 18.29876 | 34035 ft | 422 kts | 291° |
| 2026-05-07 13:30 | 45.43915 | 18.22446 | 34032 ft | 422 kts | 291° |
| 2026-05-07 13:31 | 45.46589 | 18.15016 | 34060 ft | 422 kts | 291° |
| 2026-05-07 13:31 | 45.49243 | 18.07631 | 34055 ft | 421 kts | 291° |
| 2026-05-07 13:32 | 45.51899 | 18.00204 | 34048 ft | 420 kts | 291° |
| 2026-05-07 13:32 | 45.54548 | 17.92777 | 34045 ft | 420 kts | 291° |
| 2026-05-07 13:33 | 45.57192 | 17.85350 | 34033 ft | 420 kts | 291° |
| 2026-05-07 13:33 | 45.59836 | 17.77924 | 34057 ft | 420 kts | 290° |
| 2026-05-07 13:34 | 45.63761 | 17.66806 | 34046 ft | 419 kts | 290° |
| 2026-05-07 13:35 | 45.66385 | 17.59353 | 34041 ft | 420 kts | 290° |
| 2026-05-07 13:35 | 45.69014 | 17.51904 | 34038 ft | 420 kts | 290° |
| 2026-05-07 13:36 | 45.71621 | 17.44487 | 34056 ft | 420 kts | 289° |
| 2026-05-07 13:36 | 45.74237 | 17.37011 | 34040 ft | 420 kts | 289° |
| 2026-05-07 13:37 | 45.76847 | 17.29519 | 34034 ft | 420 kts | 289° |
| 2026-05-07 13:37 | 45.79449 | 17.22020 | 34027 ft | 420 kts | 289° |
| 2026-05-07 13:38 | 45.82028 | 17.14567 | 34057 ft | 420 kts | 289° |
| 2026-05-07 13:38 | 45.84628 | 17.07073 | 34047 ft | 419 kts | 289° |
| 2026-05-07 13:39 | 45.87212 | 16.99590 | 34041 ft | 418 kts | 289° |
| 2026-05-07 13:39 | 45.89786 | 16.92107 | 34033 ft | 418 kts | 289° |
| 2026-05-07 13:40 | 45.92352 | 16.84613 | 34026 ft | 418 kts | 289° |
| 2026-05-07 13:40 | 45.94892 | 16.77173 | 34040 ft | 417 kts | 289° |
| 2026-05-07 13:41 | 45.97443 | 16.69703 | 34019 ft | 416 kts | 289° |
| 2026-05-07 13:41 | 45.99989 | 16.62230 | 34007 ft | 416 kts | 289° |
| 2026-05-07 13:42 | 46.02525 | 16.54749 | 34007 ft | 416 kts | 288° |
| 2026-05-07 13:42 | 46.05058 | 16.47256 | 34000 ft | 416 kts | 288° |
| 2026-05-07 13:43 | 46.07569 | 16.39816 | 34032 ft | 415 kts | 288° |
| 2026-05-07 13:43 | 46.10081 | 16.32336 | 34025 ft | 414 kts | 288° |
| 2026-05-07 13:44 | 46.12575 | 16.24866 | 34014 ft | 414 kts | 288° |
| 2026-05-07 13:44 | 46.15073 | 16.17391 | 34006 ft | 413 kts | 288° |
| 2026-05-07 13:45 | 46.17573 | 16.09920 | 34022 ft | 414 kts | 288° |
| 2026-05-07 13:45 | 46.20040 | 16.02498 | 33998 ft | 412 kts | 288° |
| 2026-05-07 13:46 | 46.22477 | 15.95127 | 33995 ft | 413 kts | 288° |
| 2026-05-07 13:46 | 46.24950 | 15.87653 | 33992 ft | 413 kts | 288° |
| 2026-05-07 13:47 | 46.27429 | 15.80162 | 33982 ft | 413 kts | 288° |
| 2026-05-07 13:47 | 46.29993 | 15.72704 | 33993 ft | 415 kts | 289° |
| 2026-05-07 13:48 | 46.32571 | 15.65303 | 33980 ft | 415 kts | 289° |
| 2026-05-07 13:48 | 46.35163 | 15.57821 | 33978 ft | 417 kts | 289° |
| 2026-05-07 13:49 | 46.37734 | 15.50317 | 33951 ft | 416 kts | 288° |
| 2026-05-07 13:49 | 46.40273 | 15.42852 | 33971 ft | 416 kts | 288° |
| 2026-05-07 13:50 | 46.42831 | 15.35326 | 33964 ft | 416 kts | 289° |
| 2026-05-07 13:50 | 46.45386 | 15.27788 | 33951 ft | 416 kts | 289° |
| 2026-05-07 13:51 | 46.47940 | 15.20253 | 33956 ft | 417 kts | 289° |
| 2026-05-07 13:51 | 46.50492 | 15.12699 | 33945 ft | 417 kts | 289° |
| 2026-05-07 13:52 | 46.53017 | 15.05183 | 33981 ft | 417 kts | 289° |
| 2026-05-07 13:52 | 46.55551 | 14.97611 | 33965 ft | 417 kts | 289° |
| 2026-05-07 13:53 | 46.58086 | 14.90052 | 33951 ft | 416 kts | 289° |
| 2026-05-07 13:53 | 46.60619 | 14.82485 | 33942 ft | 416 kts | 289° |
| 2026-05-07 13:54 | 46.63120 | 14.74963 | 33936 ft | 416 kts | 289° |
| 2026-05-07 13:54 | 46.65622 | 14.67384 | 33936 ft | 416 kts | 289° |
| 2026-05-07 13:55 | 46.68134 | 14.59793 | 33924 ft | 416 kts | 289° |
| 2026-05-07 13:55 | 46.70643 | 14.52199 | 33920 ft | 416 kts | 289° |
| 2026-05-07 13:56 | 46.73145 | 14.44595 | 33915 ft | 416 kts | 289° |
| 2026-05-07 13:56 | 46.75621 | 14.37033 | 33918 ft | 416 kts | 289° |
| 2026-05-07 13:57 | 46.78111 | 14.29412 | 33940 ft | 416 kts | 289° |
| 2026-05-07 13:57 | 46.80601 | 14.21792 | 33935 ft | 416 kts | 289° |
| 2026-05-07 13:58 | 46.83082 | 14.14159 | 33935 ft | 416 kts | 289° |
| 2026-05-07 13:58 | 46.85533 | 14.06564 | 33917 ft | 416 kts | 289° |
| 2026-05-07 13:58 | 46.86763 | 14.02754 | 33729 ft | 411 kts | 289° |
| 2026-05-07 13:59 | 46.87971 | 13.99032 | 33497 ft | 400 kts | 290° |
| 2026-05-07 13:59 | 46.89152 | 13.95387 | 33229 ft | 394 kts | 290° |
| 2026-05-07 13:59 | 46.90316 | 13.91777 | 32955 ft | 391 kts | 289° |
| 2026-05-07 13:59 | 46.91469 | 13.88183 | 32691 ft | 390 kts | 289° |
| 2026-05-07 14:00 | 46.92615 | 13.84601 | 32430 ft | 388 kts | 289° |
| 2026-05-07 14:00 | 46.93753 | 13.81040 | 32169 ft | 387 kts | 289° |
| 2026-05-07 14:00 | 46.94878 | 13.77529 | 31907 ft | 385 kts | 289° |
| 2026-05-07 14:00 | 46.96012 | 13.73994 | 31674 ft | 383 kts | 289° |
| 2026-05-07 14:01 | 46.97139 | 13.70469 | 31417 ft | 381 kts | 289° |
| 2026-05-07 14:01 | 46.98260 | 13.66955 | 31181 ft | 380 kts | 289° |
| 2026-05-07 14:01 | 46.99373 | 13.63448 | 30953 ft | 381 kts | 290° |
| 2026-05-07 14:01 | 47.00479 | 13.59957 | 30708 ft | 381 kts | 291° |
| 2026-05-07 14:02 | 47.01594 | 13.56437 | 30475 ft | 379 kts | 291° |
| 2026-05-07 14:02 | 47.02692 | 13.52970 | 30114 ft | 372 kts | 291° |
| 2026-05-07 14:02 | 47.03757 | 13.49605 | 29656 ft | 366 kts | 291° |
| 2026-05-07 14:02 | 47.04815 | 13.46259 | 29258 ft | 358 kts | 291° |
| 2026-05-07 14:03 | 47.05852 | 13.42980 | 28867 ft | 351 kts | 291° |
| 2026-05-07 14:03 | 47.06867 | 13.39765 | 28496 ft | 345 kts | 291° |
| 2026-05-07 14:03 | 47.07867 | 13.36598 | 28129 ft | 340 kts | 291° |
| 2026-05-07 14:03 | 47.08855 | 13.33465 | 27760 ft | 337 kts | 291° |
| 2026-05-07 14:04 | 47.09833 | 13.30350 | 27384 ft | 335 kts | 291° |
| 2026-05-07 14:04 | 47.10807 | 13.27245 | 27030 ft | 333 kts | 291° |
| 2026-05-07 14:04 | 47.11762 | 13.24196 | 26639 ft | 333 kts | 291° |
| 2026-05-07 14:04 | 47.12727 | 13.21106 | 26254 ft | 332 kts | 291° |
| 2026-05-07 14:05 | 47.13684 | 13.18037 | 25872 ft | 330 kts | 292° |
| 2026-05-07 14:05 | 47.14637 | 13.14983 | 25475 ft | 328 kts | 292° |
| 2026-05-07 14:05 | 47.15583 | 13.11939 | 25083 ft | 326 kts | 292° |
| 2026-05-07 14:05 | 47.16522 | 13.08918 | 24683 ft | 324 kts | 292° |
| 2026-05-07 14:06 | 47.17457 | 13.05921 | 24285 ft | 322 kts | 292° |
| 2026-05-07 14:06 | 47.18388 | 13.02935 | 23895 ft | 320 kts | 292° |
| 2026-05-07 14:06 | 47.19299 | 13.00006 | 23487 ft | 319 kts | 292° |
| 2026-05-07 14:06 | 47.20212 | 12.97058 | 23043 ft | 316 kts | 292° |
| 2026-05-07 14:07 | 47.21117 | 12.94131 | 22656 ft | 313 kts | 292° |
| 2026-05-07 14:07 | 47.22017 | 12.91225 | 22269 ft | 311 kts | 292° |
| 2026-05-07 14:07 | 47.22908 | 12.88340 | 21891 ft | 308 kts | 292° |
| 2026-05-07 14:07 | 47.23786 | 12.85484 | 21519 ft | 306 kts | 292° |
| 2026-05-07 14:08 | 47.24661 | 12.82640 | 21142 ft | 304 kts | 292° |
| 2026-05-07 14:08 | 47.25519 | 12.79855 | 20788 ft | 301 kts | 292° |
| 2026-05-07 14:08 | 47.26381 | 12.77053 | 20425 ft | 300 kts | 292° |
| 2026-05-07 14:08 | 47.27236 | 12.74268 | 20065 ft | 298 kts | 292° |
| 2026-05-07 14:09 | 47.28089 | 12.71496 | 19710 ft | 296 kts | 293° |
| 2026-05-07 14:09 | 47.28934 | 12.68744 | 19347 ft | 295 kts | 293° |
| 2026-05-07 14:09 | 47.29774 | 12.66000 | 18998 ft | 293 kts | 293° |
| 2026-05-07 14:09 | 47.30607 | 12.63274 | 18643 ft | 290 kts | 292° |
| 2026-05-07 14:10 | 47.31432 | 12.60568 | 18291 ft | 289 kts | 292° |
| 2026-05-07 14:10 | 47.32241 | 12.57910 | 17918 ft | 287 kts | 292° |
| 2026-05-07 14:10 | 47.33053 | 12.55240 | 17575 ft | 285 kts | 292° |
| 2026-05-07 14:10 | 47.33864 | 12.52575 | 17243 ft | 285 kts | 292° |
| 2026-05-07 14:11 | 47.34672 | 12.49920 | 16901 ft | 283 kts | 292° |
| 2026-05-07 14:11 | 47.35478 | 12.47275 | 16575 ft | 282 kts | 292° |
| 2026-05-07 14:11 | 47.36276 | 12.44644 | 16242 ft | 281 kts | 292° |
| 2026-05-07 14:11 | 47.37070 | 12.42024 | 15911 ft | 279 kts | 292° |
| 2026-05-07 14:12 | 47.37860 | 12.39412 | 15595 ft | 279 kts | 292° |
| 2026-05-07 14:12 | 47.38639 | 12.36842 | 15274 ft | 277 kts | 292° |
| 2026-05-07 14:12 | 47.39305 | 12.34185 | 14951 ft | 275 kts | 282° |
| 2026-05-07 14:12 | 47.39628 | 12.31324 | 14371 ft | 290 kts | 277° |
| 2026-05-07 14:13 | 47.39905 | 12.28346 | 13835 ft | 294 kts | 276° |
| 2026-05-07 14:13 | 47.40180 | 12.25406 | 13481 ft | 288 kts | 277° |
| 2026-05-07 14:13 | 47.40462 | 12.22400 | 12625 ft | 302 kts | 277° |
| 2026-05-07 14:13 | 47.40746 | 12.19366 | 12375 ft | 290 kts | 277° |
| 2026-05-07 14:14 | 47.41012 | 12.16527 | 12178 ft | 269 kts | 277° |
| 2026-05-07 14:14 | 47.41263 | 12.13836 | 12002 ft | 259 kts | 277° |
| 2026-05-07 14:14 | 47.41499 | 12.11277 | 11782 ft | 252 kts | 277° |
| 2026-05-07 14:14 | 47.41734 | 12.08724 | 11349 ft | 253 kts | 277° |
| 2026-05-07 14:15 | 47.41975 | 12.06102 | 10668 ft | 261 kts | 277° |
| 2026-05-07 14:15 | 47.42222 | 12.03421 | 10045 ft | 264 kts | 277° |
| 2026-05-07 14:15 | 47.42465 | 12.00798 | 9829 ft | 253 kts | 277° |
| 2026-05-07 14:15 | 47.42690 | 11.98273 | 9695 ft | 244 kts | 274° |
| 2026-05-07 14:16 | 47.42544 | 11.95856 | 9590 ft | 231 kts | 255° |
| 2026-05-07 14:16 | 47.41903 | 11.93774 | 9524 ft | 216 kts | 236° |
| 2026-05-07 14:16 | 47.40948 | 11.92217 | 9539 ft | 203 kts | 221° |
| 2026-05-07 14:16 | 47.39769 | 11.91085 | 9541 ft | 202 kts | 213° |
| 2026-05-07 14:17 | 47.38563 | 11.90025 | 9537 ft | 203 kts | 211° |
| 2026-05-07 14:17 | 47.37351 | 11.88954 | 9540 ft | 200 kts | 212° |
| 2026-05-07 14:17 | 47.36207 | 11.87944 | 9533 ft | 186 kts | 212° |
| 2026-05-07 14:17 | 47.35110 | 11.86975 | 9559 ft | 183 kts | 212° |
| 2026-05-07 14:18 | 47.34067 | 11.85916 | 9531 ft | 182 kts | 224° |
| 2026-05-07 14:18 | 47.33327 | 11.84455 | 9525 ft | 180 kts | 244° |
| 2026-05-07 14:18 | 47.32914 | 11.82723 | 9525 ft | 176 kts | 253° |
| 2026-05-07 14:18 | 47.32563 | 11.81048 | 9521 ft | 169 kts | 253° |
| 2026-05-07 14:19 | 47.32311 | 11.79351 | 9528 ft | 169 kts | 259° |
| 2026-05-07 14:19 | 47.32072 | 11.77646 | 9494 ft | 170 kts | 258° |
| 2026-05-07 14:19 | 47.31834 | 11.75955 | 9183 ft | 166 kts | 258° |
| 2026-05-07 14:19 | 47.31602 | 11.74308 | 8877 ft | 163 kts | 259° |
| 2026-05-07 14:20 | 47.31371 | 11.72679 | 8561 ft | 162 kts | 259° |
| 2026-05-07 14:20 | 47.31142 | 11.71054 | 8215 ft | 162 kts | 259° |
| 2026-05-07 14:20 | 47.30914 | 11.69439 | 7808 ft | 164 kts | 259° |
| 2026-05-07 14:20 | 47.30680 | 11.67786 | 7429 ft | 165 kts | 259° |
| 2026-05-07 14:21 | 47.30449 | 11.66160 | 7131 ft | 161 kts | 259° |
| 2026-05-07 14:21 | 47.30220 | 11.64554 | 6857 ft | 160 kts | 260° |
| 2026-05-07 14:21 | 47.29992 | 11.62952 | 6611 ft | 160 kts | 260° |
| 2026-05-07 14:21 | 47.29764 | 11.61342 | 6298 ft | 161 kts | 259° |
| 2026-05-07 14:22 | 47.29536 | 11.59742 | 6028 ft | 160 kts | 259° |
| 2026-05-07 14:22 | 47.29308 | 11.58137 | 5754 ft | 160 kts | 259° |
| 2026-05-07 14:22 | 47.29081 | 11.56540 | 5433 ft | 159 kts | 259° |
| 2026-05-07 14:22 | 47.28856 | 11.54958 | 5133 ft | 160 kts | 258° |
| 2026-05-07 14:23 | 47.28625 | 11.53341 | 4867 ft | 162 kts | 258° |
| 2026-05-07 14:23 | 47.28391 | 11.51700 | 4621 ft | 166 kts | 258° |
| 2026-05-07 14:23 | 47.28153 | 11.50035 | 4402 ft | 167 kts | 258° |
| 2026-05-07 14:23 | 47.27911 | 11.48349 | 4153 ft | 168 kts | 258° |
| 2026-05-07 14:24 | 47.27671 | 11.46682 | 3832 ft | 165 kts | 258° |
| 2026-05-07 14:24 | 47.27435 | 11.45039 | 3519 ft | 162 kts | 259° |
| 2026-05-07 14:24 | 47.27185 | 11.43470 | 3273 ft | 157 kts | 255° |
| 2026-05-07 14:24 | 47.26849 | 11.41937 | 2995 ft | 157 kts | 255° |
| 2026-05-07 14:25 | 47.26612 | 11.40366 | 2671 ft | 157 kts | 263° |
| 2026-05-07 14:25 | 47.26486 | 11.38774 | 2417 ft | 160 kts | 266° |
| 2026-05-07 14:25 | 47.26125 | 11.35397 | 1905 ft | 161 kts | 258° |
| 2026-05-07 14:26 | 47.25990 | 11.34183 | 1898 ft | 61 kts | 262° |
| 2026-05-07 14:26 | 47.25957 | 11.33823 | 1904 ft | 18 kts | 262° |
| 2026-05-07 14:26 | 47.25947 | 11.33731 | 1895 ft | 7 kts | 256° |
| 2026-05-07 14:26 | 47.25931 | 11.33697 | 1893 ft | 6 kts | 219° |
| 2026-05-07 14:27 | 47.25894 | 11.33711 | 1895 ft | 4 kts | 133° |
| 2026-05-07 14:27 | 47.25884 | 11.33730 | 1900 ft | 4 kts | 127° |
| 2026-05-07 14:27 | 47.25848 | 11.33802 | 1894 ft | 9 kts | 125° |
| 2026-05-07 14:27 | 47.25812 | 11.33875 | 1894 ft | 8 kts | 126° |
| 2026-05-07 14:28 | 47.25784 | 11.33943 | 1898 ft | 7 kts | 114° |
| 2026-05-07 14:28 | 47.25772 | 11.34012 | 1904 ft | 7 kts | 96° |
| 2026-05-07 14:28 | 47.25773 | 11.34077 | 1904 ft | 6 kts | 82° |
| 2026-05-07 14:28 | 47.25779 | 11.34138 | 1893 ft | 7 kts | 82° |
| 2026-05-07 14:29 | 47.25789 | 11.34231 | 1900 ft | 11 kts | 80° |
| 2026-05-07 14:29 | 47.25804 | 11.34363 | 1904 ft | 14 kts | 80° |
| 2026-05-07 14:29 | 47.25818 | 11.34499 | 1899 ft | 13 kts | 82° |
| 2026-05-07 14:29 | 47.25833 | 11.34630 | 1904 ft | 13 kts | 80° |
| 2026-05-07 14:30 | 47.25841 | 11.34722 | 1904 ft | 7 kts | 96° |
| 2026-05-07 14:30 | 47.25820 | 11.34745 | 1900 ft | 3 kts | 170° |
| 2026-05-07 14:30 | 47.25805 | 11.34748 | 1894 ft | 1 kts | 171° |
| 2026-05-07 14:30 | 47.25801 | 11.34749 | 1896 ft | 0 kts | 171° |